sensor_id;sensor_type;location;lat;lon;timestamp;P1;durP1;ratioP1;P2;durP2;ratioP2
82873;SDS011;72647;51.622;7.540;2024-01-11T00:01:50;39.97;;;14.27;;
82873;SDS011;72647;51.622;7.540;2024-01-11T00:03:51;40.73;;;13.97;;
82873;SDS011;72647;51.622;7.540;2024-01-11T00:05:51;37.23;;;13.23;;
82873;SDS011;72647;51.622;7.540;2024-01-11T00:07:51;42.40;;;13.98;;
82873;SDS011;72647;51.622;7.540;2024-01-11T00:09:52;36.30;;;12.85;;
82873;SDS011;72647;51.622;7.540;2024-01-11T00:11:52;36.73;;;12.63;;
82873;SDS011;72647;51.622;7.540;2024-01-11T00:13:52;43.13;;;13.30;;
82873;SDS011;72647;51.622;7.540;2024-01-11T00:15:52;33.10;;;13.43;;
82873;SDS011;72647;51.622;7.540;2024-01-11T00:17:53;38.67;;;12.63;;
82873;SDS011;72647;51.622;7.540;2024-01-11T00:19:53;40.00;;;14.23;;
82873;SDS011;72647;51.622;7.540;2024-01-11T00:21:53;37.53;;;13.80;;
82873;SDS011;72647;51.622;7.540;2024-01-11T00:23:53;38.10;;;13.43;;
82873;SDS011;72647;51.622;7.540;2024-01-11T00:25:53;36.83;;;12.13;;
82873;SDS011;72647;51.622;7.540;2024-01-11T00:27:54;36.80;;;13.47;;
82873;SDS011;72647;51.622;7.540;2024-01-11T00:29:54;37.90;;;12.33;;
82873;SDS011;72647;51.622;7.540;2024-01-11T00:31:54;38.03;;;13.13;;
82873;SDS011;72647;51.622;7.540;2024-01-11T00:33:55;36.95;;;13.68;;
82873;SDS011;72647;51.622;7.540;2024-01-11T00:35:55;39.30;;;13.77;;
82873;SDS011;72647;51.622;7.540;2024-01-11T00:37:55;41.60;;;13.13;;
82873;SDS011;72647;51.622;7.540;2024-01-11T00:39:56;34.20;;;13.40;;
82873;SDS011;72647;51.622;7.540;2024-01-11T00:41:56;37.90;;;12.20;;
82873;SDS011;72647;51.622;7.540;2024-01-11T00:43:56;38.90;;;12.87;;
82873;SDS011;72647;51.622;7.540;2024-01-11T00:45:56;41.27;;;12.93;;
82873;SDS011;72647;51.622;7.540;2024-01-11T00:47:57;35.93;;;13.10;;
82873;SDS011;72647;51.622;7.540;2024-01-11T00:49:57;40.90;;;13.10;;
82873;SDS011;72647;51.622;7.540;2024-01-11T00:51:58;42.23;;;13.23;;
82873;SDS011;72647;51.622;7.540;2024-01-11T00:53:58;34.37;;;13.90;;
82873;SDS011;72647;51.622;7.540;2024-01-11T00:55:58;41.97;;;13.47;;
82873;SDS011;72647;51.622;7.540;2024-01-11T00:57:59;31.08;;;13.07;;
82873;SDS011;72647;51.622;7.540;2024-01-11T00:59:59;37.80;;;14.10;;
82873;SDS011;72647;51.622;7.540;2024-01-11T01:01:59;36.10;;;12.67;;
82873;SDS011;72647;51.622;7.540;2024-01-11T01:04:00;37.00;;;13.93;;
82873;SDS011;72647;51.622;7.540;2024-01-11T01:06:00;39.58;;;14.00;;
82873;SDS011;72647;51.622;7.540;2024-01-11T01:08:01;39.08;;;14.38;;
82873;SDS011;72647;51.622;7.540;2024-01-11T01:10:02;41.97;;;15.03;;
82873;SDS011;72647;51.622;7.540;2024-01-11T01:12:02;45.03;;;14.20;;
82873;SDS011;72647;51.622;7.540;2024-01-11T01:14:03;40.47;;;14.98;;
82873;SDS011;72647;51.622;7.540;2024-01-11T01:16:03;36.33;;;13.47;;
82873;SDS011;72647;51.622;7.540;2024-01-11T01:18:03;39.38;;;14.32;;
82873;SDS011;72647;51.622;7.540;2024-01-11T01:20:04;37.25;;;14.85;;
82873;SDS011;72647;51.622;7.540;2024-01-11T01:22:05;37.05;;;13.45;;
82873;SDS011;72647;51.622;7.540;2024-01-11T01:24:05;39.67;;;13.67;;
82873;SDS011;72647;51.622;7.540;2024-01-11T01:26:06;38.07;;;12.87;;
82873;SDS011;72647;51.622;7.540;2024-01-11T01:28:06;41.17;;;14.50;;
82873;SDS011;72647;51.622;7.540;2024-01-11T01:30:06;36.23;;;13.57;;
82873;SDS011;72647;51.622;7.540;2024-01-11T01:32:07;38.90;;;13.25;;
82873;SDS011;72647;51.622;7.540;2024-01-11T01:34:07;37.30;;;12.83;;
82873;SDS011;72647;51.622;7.540;2024-01-11T01:36:10;38.53;;;12.50;;
82873;SDS011;72647;51.622;7.540;2024-01-11T01:38:10;43.08;;;15.43;;
82873;SDS011;72647;51.622;7.540;2024-01-11T01:40:11;44.63;;;14.73;;
82873;SDS011;72647;51.622;7.540;2024-01-11T01:42:11;43.05;;;13.90;;
82873;SDS011;72647;51.622;7.540;2024-01-11T01:44:11;38.07;;;13.27;;
82873;SDS011;72647;51.622;7.540;2024-01-11T01:46:12;42.70;;;14.57;;
82873;SDS011;72647;51.622;7.540;2024-01-11T01:48:17;38.47;;;14.02;;
82873;SDS011;72647;51.622;7.540;2024-01-11T01:50:17;46.23;;;14.97;;
82873;SDS011;72647;51.622;7.540;2024-01-11T01:52:18;38.28;;;13.38;;
82873;SDS011;72647;51.622;7.540;2024-01-11T01:54:19;31.88;;;12.00;;
82873;SDS011;72647;51.622;7.540;2024-01-11T01:56:20;35.22;;;12.80;;
82873;SDS011;72647;51.622;7.540;2024-01-11T01:58:21;39.88;;;13.20;;
82873;SDS011;72647;51.622;7.540;2024-01-11T02:00:21;36.92;;;13.45;;
82873;SDS011;72647;51.622;7.540;2024-01-11T02:02:22;48.03;;;13.53;;
82873;SDS011;72647;51.622;7.540;2024-01-11T02:04:22;41.90;;;12.95;;
82873;SDS011;72647;51.622;7.540;2024-01-11T02:06:23;40.65;;;13.10;;
82873;SDS011;72647;51.622;7.540;2024-01-11T02:08:25;41.00;;;14.23;;
82873;SDS011;72647;51.622;7.540;2024-01-11T02:10:25;40.35;;;12.90;;
82873;SDS011;72647;51.622;7.540;2024-01-11T02:12:26;47.63;;;14.25;;
82873;SDS011;72647;51.622;7.540;2024-01-11T02:14:26;37.47;;;12.45;;
82873;SDS011;72647;51.622;7.540;2024-01-11T02:16:26;36.07;;;12.20;;
82873;SDS011;72647;51.622;7.540;2024-01-11T02:18:26;45.67;;;13.70;;
82873;SDS011;72647;51.622;7.540;2024-01-11T02:20:27;44.92;;;13.90;;
82873;SDS011;72647;51.622;7.540;2024-01-11T02:22:37;41.30;;;12.93;;
82873;SDS011;72647;51.622;7.540;2024-01-11T02:24:38;40.53;;;12.52;;
82873;SDS011;72647;51.622;7.540;2024-01-11T02:26:56;34.80;;;11.60;;
82873;SDS011;72647;51.622;7.540;2024-01-11T02:28:57;37.65;;;12.70;;
82873;SDS011;72647;51.622;7.540;2024-01-11T02:30:58;38.00;;;12.80;;
82873;SDS011;72647;51.622;7.540;2024-01-11T02:32:58;39.27;;;12.57;;
82873;SDS011;72647;51.622;7.540;2024-01-11T02:34:58;32.97;;;11.47;;
82873;SDS011;72647;51.622;7.540;2024-01-11T02:36:58;40.33;;;13.27;;
82873;SDS011;72647;51.622;7.540;2024-01-11T02:38:59;38.50;;;12.63;;
82873;SDS011;72647;51.622;7.540;2024-01-11T02:40:59;32.57;;;12.87;;
82873;SDS011;72647;51.622;7.540;2024-01-11T02:43:06;35.63;;;10.57;;
82873;SDS011;72647;51.622;7.540;2024-01-11T02:45:07;34.65;;;12.00;;
82873;SDS011;72647;51.622;7.540;2024-01-11T02:47:07;41.67;;;13.57;;
82873;SDS011;72647;51.622;7.540;2024-01-11T02:49:07;31.90;;;11.63;;
82873;SDS011;72647;51.622;7.540;2024-01-11T02:51:07;41.57;;;13.03;;
82873;SDS011;72647;51.622;7.540;2024-01-11T02:53:08;37.67;;;12.30;;
82873;SDS011;72647;51.622;7.540;2024-01-11T02:55:08;37.27;;;12.73;;
82873;SDS011;72647;51.622;7.540;2024-01-11T02:57:09;39.05;;;13.10;;
82873;SDS011;72647;51.622;7.540;2024-01-11T02:59:09;44.97;;;14.40;;
82873;SDS011;72647;51.622;7.540;2024-01-11T03:01:09;36.60;;;12.10;;
82873;SDS011;72647;51.622;7.540;2024-01-11T03:03:10;34.07;;;11.43;;
82873;SDS011;72647;51.622;7.540;2024-01-11T03:05:10;35.33;;;12.20;;
82873;SDS011;72647;51.622;7.540;2024-01-11T03:07:10;39.03;;;14.05;;
82873;SDS011;72647;51.622;7.540;2024-01-11T03:09:10;41.03;;;13.20;;
82873;SDS011;72647;51.622;7.540;2024-01-11T03:11:11;35.55;;;12.43;;
82873;SDS011;72647;51.622;7.540;2024-01-11T03:13:11;46.70;;;13.80;;
82873;SDS011;72647;51.622;7.540;2024-01-11T03:15:12;37.08;;;13.18;;
82873;SDS011;72647;51.622;7.540;2024-01-11T03:17:13;33.40;;;12.00;;
82873;SDS011;72647;51.622;7.540;2024-01-11T03:19:13;35.73;;;12.93;;
82873;SDS011;72647;51.622;7.540;2024-01-11T03:21:13;34.37;;;12.67;;
82873;SDS011;72647;51.622;7.540;2024-01-11T03:23:13;37.77;;;12.67;;
82873;SDS011;72647;51.622;7.540;2024-01-11T03:25:13;33.87;;;11.57;;
82873;SDS011;72647;51.622;7.540;2024-01-11T03:27:15;41.17;;;13.03;;
82873;SDS011;72647;51.622;7.540;2024-01-11T03:29:15;36.97;;;13.52;;
82873;SDS011;72647;51.622;7.540;2024-01-11T03:31:16;30.93;;;11.87;;
82873;SDS011;72647;51.622;7.540;2024-01-11T03:33:16;35.90;;;12.27;;
82873;SDS011;72647;51.622;7.540;2024-01-11T03:35:17;38.63;;;12.60;;
82873;SDS011;72647;51.622;7.540;2024-01-11T03:37:17;36.75;;;12.85;;
82873;SDS011;72647;51.622;7.540;2024-01-11T03:39:18;41.30;;;13.90;;
82873;SDS011;72647;51.622;7.540;2024-01-11T03:41:18;34.60;;;12.38;;
82873;SDS011;72647;51.622;7.540;2024-01-11T03:43:19;41.83;;;12.25;;
82873;SDS011;72647;51.622;7.540;2024-01-11T03:45:19;37.03;;;11.93;;
82873;SDS011;72647;51.622;7.540;2024-01-11T03:47:19;35.77;;;12.97;;
82873;SDS011;72647;51.622;7.540;2024-01-11T03:49:20;37.33;;;11.30;;
82873;SDS011;72647;51.622;7.540;2024-01-11T03:51:20;37.63;;;12.57;;
82873;SDS011;72647;51.622;7.540;2024-01-11T03:53:20;36.73;;;13.37;;
82873;SDS011;72647;51.622;7.540;2024-01-11T03:55:20;40.93;;;13.13;;
82873;SDS011;72647;51.622;7.540;2024-01-11T03:57:20;37.07;;;12.93;;
82873;SDS011;72647;51.622;7.540;2024-01-11T03:59:21;36.17;;;11.63;;
82873;SDS011;72647;51.622;7.540;2024-01-11T04:01:21;36.97;;;13.70;;
82873;SDS011;72647;51.622;7.540;2024-01-11T04:03:21;39.60;;;13.20;;
82873;SDS011;72647;51.622;7.540;2024-01-11T04:05:21;36.63;;;11.97;;
82873;SDS011;72647;51.622;7.540;2024-01-11T04:07:21;31.60;;;12.57;;
82873;SDS011;72647;51.622;7.540;2024-01-11T04:09:21;32.67;;;11.67;;
82873;SDS011;72647;51.622;7.540;2024-01-11T04:11:22;41.00;;;12.47;;
82873;SDS011;72647;51.622;7.540;2024-01-11T04:13:22;34.47;;;12.40;;
82873;SDS011;72647;51.622;7.540;2024-01-11T04:15:22;31.23;;;11.83;;
82873;SDS011;72647;51.622;7.540;2024-01-11T04:17:22;40.03;;;12.47;;
82873;SDS011;72647;51.622;7.540;2024-01-11T04:19:23;38.17;;;12.45;;
82873;SDS011;72647;51.622;7.540;2024-01-11T04:21:23;42.67;;;12.83;;
82873;SDS011;72647;51.622;7.540;2024-01-11T04:23:24;34.95;;;11.75;;
82873;SDS011;72647;51.622;7.540;2024-01-11T04:25:24;41.10;;;12.67;;
82873;SDS011;72647;51.622;7.540;2024-01-11T04:27:24;33.83;;;12.43;;
82873;SDS011;72647;51.622;7.540;2024-01-11T04:29:25;36.00;;;12.63;;
82873;SDS011;72647;51.622;7.540;2024-01-11T04:31:25;37.30;;;14.03;;
82873;SDS011;72647;51.622;7.540;2024-01-11T04:33:25;38.33;;;12.13;;
82873;SDS011;72647;51.622;7.540;2024-01-11T04:35:25;36.70;;;12.50;;
82873;SDS011;72647;51.622;7.540;2024-01-11T04:37:26;36.20;;;13.07;;
82873;SDS011;72647;51.622;7.540;2024-01-11T04:39:26;36.17;;;11.57;;
82873;SDS011;72647;51.622;7.540;2024-01-11T04:41:26;39.70;;;13.93;;
82873;SDS011;72647;51.622;7.540;2024-01-11T04:43:26;33.27;;;13.10;;
82873;SDS011;72647;51.622;7.540;2024-01-11T04:45:26;42.57;;;13.83;;
82873;SDS011;72647;51.622;7.540;2024-01-11T04:47:26;35.73;;;12.17;;
82873;SDS011;72647;51.622;7.540;2024-01-11T04:49:27;43.77;;;13.63;;
82873;SDS011;72647;51.622;7.540;2024-01-11T04:51:27;35.20;;;12.27;;
82873;SDS011;72647;51.622;7.540;2024-01-11T04:53:27;39.90;;;13.90;;
82873;SDS011;72647;51.622;7.540;2024-01-11T04:55:27;40.33;;;14.40;;
82873;SDS011;72647;51.622;7.540;2024-01-11T04:57:28;37.63;;;12.27;;
82873;SDS011;72647;51.622;7.540;2024-01-11T04:59:28;38.70;;;12.67;;
82873;SDS011;72647;51.622;7.540;2024-01-11T05:01:28;31.03;;;12.03;;
82873;SDS011;72647;51.622;7.540;2024-01-11T05:03:28;35.10;;;12.70;;
82873;SDS011;72647;51.622;7.540;2024-01-11T05:05:29;44.97;;;15.65;;
82873;SDS011;72647;51.622;7.540;2024-01-11T05:07:29;45.00;;;15.30;;
82873;SDS011;72647;51.622;7.540;2024-01-11T05:09:29;39.97;;;13.40;;
82873;SDS011;72647;51.622;7.540;2024-01-11T05:11:29;34.97;;;12.73;;
82873;SDS011;72647;51.622;7.540;2024-01-11T05:13:30;37.80;;;13.63;;
82873;SDS011;72647;51.622;7.540;2024-01-11T05:15:30;36.73;;;12.90;;
82873;SDS011;72647;51.622;7.540;2024-01-11T05:17:30;34.93;;;12.57;;
82873;SDS011;72647;51.622;7.540;2024-01-11T05:19:30;37.17;;;12.33;;
82873;SDS011;72647;51.622;7.540;2024-01-11T05:21:30;47.63;;;14.57;;
82873;SDS011;72647;51.622;7.540;2024-01-11T05:23:31;35.43;;;12.40;;
82873;SDS011;72647;51.622;7.540;2024-01-11T05:25:31;36.90;;;13.37;;
82873;SDS011;72647;51.622;7.540;2024-01-11T05:27:34;37.80;;;12.43;;
82873;SDS011;72647;51.622;7.540;2024-01-11T05:29:34;40.15;;;14.55;;
82873;SDS011;72647;51.622;7.540;2024-01-11T05:31:35;41.40;;;14.00;;
82873;SDS011;72647;51.622;7.540;2024-01-11T05:33:35;37.73;;;13.57;;
82873;SDS011;72647;51.622;7.540;2024-01-11T05:35:35;42.00;;;13.60;;
82873;SDS011;72647;51.622;7.540;2024-01-11T05:37:35;49.13;;;14.80;;
82873;SDS011;72647;51.622;7.540;2024-01-11T05:39:36;46.83;;;14.38;;
82873;SDS011;72647;51.622;7.540;2024-01-11T05:41:36;40.30;;;14.03;;
82873;SDS011;72647;51.622;7.540;2024-01-11T05:43:37;47.10;;;14.27;;
82873;SDS011;72647;51.622;7.540;2024-01-11T05:45:37;49.53;;;14.50;;
82873;SDS011;72647;51.622;7.540;2024-01-11T05:47:37;42.27;;;14.77;;
82873;SDS011;72647;51.622;7.540;2024-01-11T05:49:38;44.03;;;13.63;;
82873;SDS011;72647;51.622;7.540;2024-01-11T05:51:38;39.87;;;14.63;;
82873;SDS011;72647;51.622;7.540;2024-01-11T05:53:38;43.07;;;15.80;;
82873;SDS011;72647;51.622;7.540;2024-01-11T05:55:39;47.57;;;14.73;;
82873;SDS011;72647;51.622;7.540;2024-01-11T05:57:40;45.42;;;14.52;;
82873;SDS011;72647;51.622;7.540;2024-01-11T05:59:43;55.47;;;20.70;;
82873;SDS011;72647;51.622;7.540;2024-01-11T06:01:43;44.70;;;16.08;;
82873;SDS011;72647;51.622;7.540;2024-01-11T06:03:43;42.97;;;15.43;;
82873;SDS011;72647;51.622;7.540;2024-01-11T06:05:44;40.07;;;14.07;;
82873;SDS011;72647;51.622;7.540;2024-01-11T06:07:44;49.08;;;16.58;;
82873;SDS011;72647;51.622;7.540;2024-01-11T06:09:44;43.90;;;16.90;;
82873;SDS011;72647;51.622;7.540;2024-01-11T06:11:44;43.70;;;14.80;;
82873;SDS011;72647;51.622;7.540;2024-01-11T06:13:44;36.63;;;15.13;;
82873;SDS011;72647;51.622;7.540;2024-01-11T06:15:45;43.90;;;16.27;;
82873;SDS011;72647;51.622;7.540;2024-01-11T06:17:45;40.27;;;15.00;;
82873;SDS011;72647;51.622;7.540;2024-01-11T06:19:45;44.43;;;13.90;;
82873;SDS011;72647;51.622;7.540;2024-01-11T06:21:45;44.58;;;14.10;;
82873;SDS011;72647;51.622;7.540;2024-01-11T06:23:47;42.00;;;14.82;;
82873;SDS011;72647;51.622;7.540;2024-01-11T06:25:47;44.65;;;15.77;;
82873;SDS011;72647;51.622;7.540;2024-01-11T06:27:48;42.87;;;14.67;;
82873;SDS011;72647;51.622;7.540;2024-01-11T06:29:48;47.83;;;16.00;;
82873;SDS011;72647;51.622;7.540;2024-01-11T06:31:48;42.17;;;15.33;;
82873;SDS011;72647;51.622;7.540;2024-01-11T06:33:48;48.00;;;15.33;;
82873;SDS011;72647;51.622;7.540;2024-01-11T06:35:48;44.37;;;16.77;;
82873;SDS011;72647;51.622;7.540;2024-01-11T06:37:48;46.83;;;16.57;;
82873;SDS011;72647;51.622;7.540;2024-01-11T06:39:49;42.60;;;16.08;;
82873;SDS011;72647;51.622;7.540;2024-01-11T06:41:49;44.42;;;16.70;;
82873;SDS011;72647;51.622;7.540;2024-01-11T06:43:50;47.40;;;15.60;;
82873;SDS011;72647;51.622;7.540;2024-01-11T06:45:50;42.80;;;16.00;;
82873;SDS011;72647;51.622;7.540;2024-01-11T06:47:50;43.03;;;15.53;;
82873;SDS011;72647;51.622;7.540;2024-01-11T06:49:50;45.60;;;15.37;;
82873;SDS011;72647;51.622;7.540;2024-01-11T06:51:50;41.97;;;15.83;;
82873;SDS011;72647;51.622;7.540;2024-01-11T06:53:51;49.60;;;15.45;;
82873;SDS011;72647;51.622;7.540;2024-01-11T06:55:51;48.77;;;15.07;;
82873;SDS011;72647;51.622;7.540;2024-01-11T06:57:52;36.30;;;13.55;;
82873;SDS011;72647;51.622;7.540;2024-01-11T06:59:53;38.42;;;13.15;;
82873;SDS011;72647;51.622;7.540;2024-01-11T07:01:53;40.90;;;13.77;;
82873;SDS011;72647;51.622;7.540;2024-01-11T07:03:53;40.80;;;13.67;;
82873;SDS011;72647;51.622;7.540;2024-01-11T07:05:53;38.50;;;13.13;;
82873;SDS011;72647;51.622;7.540;2024-01-11T07:07:53;43.53;;;13.60;;
82873;SDS011;72647;51.622;7.540;2024-01-11T07:09:54;41.20;;;14.20;;
82873;SDS011;72647;51.622;7.540;2024-01-11T07:11:55;39.00;;;14.57;;
82873;SDS011;72647;51.622;7.540;2024-01-11T07:13:55;36.70;;;13.73;;
82873;SDS011;72647;51.622;7.540;2024-01-11T07:15:56;39.60;;;12.63;;
82873;SDS011;72647;51.622;7.540;2024-01-11T07:17:57;38.47;;;13.63;;
82873;SDS011;72647;51.622;7.540;2024-01-11T07:19:58;39.97;;;13.93;;
82873;SDS011;72647;51.622;7.540;2024-01-11T07:21:58;35.73;;;13.30;;
82873;SDS011;72647;51.622;7.540;2024-01-11T07:23:58;34.30;;;13.23;;
82873;SDS011;72647;51.622;7.540;2024-01-11T07:25:59;36.40;;;13.55;;
82873;SDS011;72647;51.622;7.540;2024-01-11T07:27:59;39.10;;;13.53;;
82873;SDS011;72647;51.622;7.540;2024-01-11T07:29:59;46.83;;;13.87;;
82873;SDS011;72647;51.622;7.540;2024-01-11T07:31:59;39.23;;;13.43;;
82873;SDS011;72647;51.622;7.540;2024-01-11T07:34:00;44.28;;;13.73;;
82873;SDS011;72647;51.622;7.540;2024-01-11T07:36:00;44.03;;;13.07;;
82873;SDS011;72647;51.622;7.540;2024-01-11T07:38:00;38.63;;;13.50;;
82873;SDS011;72647;51.622;7.540;2024-01-11T07:40:00;45.50;;;14.52;;
82873;SDS011;72647;51.622;7.540;2024-01-11T07:42:01;39.60;;;12.90;;
82873;SDS011;72647;51.622;7.540;2024-01-11T07:44:02;40.75;;;13.38;;
82873;SDS011;72647;51.622;7.540;2024-01-11T07:46:03;43.25;;;14.95;;
82873;SDS011;72647;51.622;7.540;2024-01-11T07:48:05;37.00;;;12.93;;
82873;SDS011;72647;51.622;7.540;2024-01-11T07:50:06;35.40;;;12.63;;
82873;SDS011;72647;51.622;7.540;2024-01-11T07:52:06;43.42;;;14.30;;
82873;SDS011;72647;51.622;7.540;2024-01-11T07:54:07;43.97;;;14.73;;
82873;SDS011;72647;51.622;7.540;2024-01-11T07:56:07;35.57;;;13.67;;
82873;SDS011;72647;51.622;7.540;2024-01-11T07:58:07;45.07;;;15.47;;
82873;SDS011;72647;51.622;7.540;2024-01-11T08:00:08;38.17;;;15.60;;
82873;SDS011;72647;51.622;7.540;2024-01-11T08:02:08;44.13;;;14.70;;
82873;SDS011;72647;51.622;7.540;2024-01-11T08:04:08;41.97;;;14.70;;
82873;SDS011;72647;51.622;7.540;2024-01-11T08:06:08;41.17;;;14.47;;
82873;SDS011;72647;51.622;7.540;2024-01-11T08:08:09;51.97;;;15.18;;
82873;SDS011;72647;51.622;7.540;2024-01-11T08:10:09;50.87;;;15.83;;
82873;SDS011;72647;51.622;7.540;2024-01-11T08:12:10;44.40;;;14.93;;
82873;SDS011;72647;51.622;7.540;2024-01-11T08:14:10;41.07;;;15.10;;
82873;SDS011;72647;51.622;7.540;2024-01-11T08:16:14;45.43;;;16.00;;
82873;SDS011;72647;51.622;7.540;2024-01-11T08:18:17;34.10;;;14.07;;
82873;SDS011;72647;51.622;7.540;2024-01-11T08:20:18;41.60;;;14.57;;
82873;SDS011;72647;51.622;7.540;2024-01-11T08:22:19;41.63;;;15.13;;
82873;SDS011;72647;51.622;7.540;2024-01-11T08:24:19;46.10;;;15.95;;
82873;SDS011;72647;51.622;7.540;2024-01-11T08:26:20;44.50;;;15.57;;
82873;SDS011;72647;51.622;7.540;2024-01-11T08:28:21;40.97;;;14.98;;
82873;SDS011;72647;51.622;7.540;2024-01-11T08:30:22;37.03;;;14.50;;
82873;SDS011;72647;51.622;7.540;2024-01-11T08:32:22;38.73;;;15.07;;
82873;SDS011;72647;51.622;7.540;2024-01-11T08:34:23;46.78;;;16.48;;
82873;SDS011;72647;51.622;7.540;2024-01-11T08:36:23;45.35;;;16.88;;
82873;SDS011;72647;51.622;7.540;2024-01-11T08:38:23;49.40;;;16.97;;
82873;SDS011;72647;51.622;7.540;2024-01-11T08:40:24;45.90;;;16.13;;
82873;SDS011;72647;51.622;7.540;2024-01-11T08:42:25;47.13;;;16.48;;
82873;SDS011;72647;51.622;7.540;2024-01-11T08:44:25;41.83;;;15.27;;
82873;SDS011;72647;51.622;7.540;2024-01-11T08:46:26;45.90;;;15.73;;
82873;SDS011;72647;51.622;7.540;2024-01-11T08:48:26;45.20;;;15.90;;
82873;SDS011;72647;51.622;7.540;2024-01-11T08:50:26;47.63;;;17.55;;
82873;SDS011;72647;51.622;7.540;2024-01-11T08:52:27;53.07;;;17.00;;
82873;SDS011;72647;51.622;7.540;2024-01-11T08:54:27;48.22;;;16.77;;
82873;SDS011;72647;51.622;7.540;2024-01-11T08:56:27;49.50;;;16.30;;
82873;SDS011;72647;51.622;7.540;2024-01-11T08:58:28;45.80;;;15.95;;
82873;SDS011;72647;51.622;7.540;2024-01-11T09:00:28;38.67;;;14.43;;
82873;SDS011;72647;51.622;7.540;2024-01-11T09:02:28;41.80;;;16.17;;
82873;SDS011;72647;51.622;7.540;2024-01-11T09:04:28;43.93;;;15.57;;
82873;SDS011;72647;51.622;7.540;2024-01-11T09:06:29;44.00;;;16.73;;
82873;SDS011;72647;51.622;7.540;2024-01-11T09:08:30;35.23;;;13.17;;
82873;SDS011;72647;51.622;7.540;2024-01-11T09:10:30;40.27;;;13.97;;
82873;SDS011;72647;51.622;7.540;2024-01-11T09:12:30;39.70;;;14.43;;
82873;SDS011;72647;51.622;7.540;2024-01-11T09:14:30;36.20;;;14.47;;
82873;SDS011;72647;51.622;7.540;2024-01-11T09:16:30;42.40;;;14.70;;
82873;SDS011;72647;51.622;7.540;2024-01-11T09:18:31;40.72;;;14.23;;
82873;SDS011;72647;51.622;7.540;2024-01-11T09:20:31;34.30;;;13.97;;
82873;SDS011;72647;51.622;7.540;2024-01-11T09:22:31;33.00;;;12.33;;
82873;SDS011;72647;51.622;7.540;2024-01-11T09:24:31;35.83;;;13.30;;
82873;SDS011;72647;51.622;7.540;2024-01-11T09:26:32;39.45;;;12.75;;
82873;SDS011;72647;51.622;7.540;2024-01-11T09:28:32;38.65;;;13.13;;
82873;SDS011;72647;51.622;7.540;2024-01-11T09:30:32;41.47;;;14.63;;
82873;SDS011;72647;51.622;7.540;2024-01-11T09:32:33;35.80;;;14.18;;
82873;SDS011;72647;51.622;7.540;2024-01-11T09:34:33;34.07;;;13.10;;
82873;SDS011;72647;51.622;7.540;2024-01-11T09:36:33;32.57;;;13.93;;
82873;SDS011;72647;51.622;7.540;2024-01-11T09:38:34;37.77;;;14.13;;
82873;SDS011;72647;51.622;7.540;2024-01-11T09:40:34;39.83;;;14.00;;
82873;SDS011;72647;51.622;7.540;2024-01-11T09:42:34;34.47;;;13.40;;
82873;SDS011;72647;51.622;7.540;2024-01-11T09:44:34;42.50;;;14.37;;
82873;SDS011;72647;51.622;7.540;2024-01-11T09:46:34;39.03;;;14.13;;
82873;SDS011;72647;51.622;7.540;2024-01-11T09:48:36;34.90;;;14.35;;
82873;SDS011;72647;51.622;7.540;2024-01-11T09:50:37;40.58;;;14.38;;
82873;SDS011;72647;51.622;7.540;2024-01-11T09:52:38;36.85;;;14.77;;
82873;SDS011;72647;51.622;7.540;2024-01-11T09:54:39;36.13;;;13.38;;
82873;SDS011;72647;51.622;7.540;2024-01-11T09:56:40;37.15;;;14.27;;
82873;SDS011;72647;51.622;7.540;2024-01-11T09:58:42;32.88;;;14.02;;
82873;SDS011;72647;51.622;7.540;2024-01-11T10:00:43;29.48;;;11.60;;
82873;SDS011;72647;51.622;7.540;2024-01-11T10:02:45;34.85;;;14.00;;
82873;SDS011;72647;51.622;7.540;2024-01-11T10:04:45;40.22;;;13.48;;
82873;SDS011;72647;51.622;7.540;2024-01-11T10:06:46;36.13;;;12.88;;
82873;SDS011;72647;51.622;7.540;2024-01-11T10:12:49;27.25;;;8.13;;
82873;SDS011;72647;51.622;7.540;2024-01-11T10:14:49;31.75;;;12.07;;
82873;SDS011;72647;51.622;7.540;2024-01-11T10:16:50;35.78;;;12.65;;
82873;SDS011;72647;51.622;7.540;2024-01-11T10:18:53;33.83;;;11.77;;
82873;SDS011;72647;51.622;7.540;2024-01-11T10:20:53;36.88;;;13.60;;
82873;SDS011;72647;51.622;7.540;2024-01-11T10:22:54;36.85;;;13.48;;
82873;SDS011;72647;51.622;7.540;2024-01-11T10:25:07;40.05;;;13.85;;
82873;SDS011;72647;51.622;7.540;2024-01-11T10:27:08;37.58;;;13.90;;
82873;SDS011;72647;51.622;7.540;2024-01-11T10:29:09;35.13;;;12.65;;
82873;SDS011;72647;51.622;7.540;2024-01-11T10:31:11;36.00;;;13.38;;
82873;SDS011;72647;51.622;7.540;2024-01-11T10:33:11;40.83;;;13.77;;
82873;SDS011;72647;51.622;7.540;2024-01-11T10:35:11;36.40;;;14.00;;
82873;SDS011;72647;51.622;7.540;2024-01-11T10:37:11;35.10;;;13.23;;
82873;SDS011;72647;51.622;7.540;2024-01-11T10:39:12;32.85;;;13.57;;
82873;SDS011;72647;51.622;7.540;2024-01-11T10:41:14;35.33;;;13.85;;
82873;SDS011;72647;51.622;7.540;2024-01-11T10:43:19;28.70;;;13.35;;
82873;SDS011;72647;51.622;7.540;2024-01-11T10:45:21;35.90;;;14.45;;
82873;SDS011;72647;51.622;7.540;2024-01-11T10:47:21;35.13;;;13.82;;
82873;SDS011;72647;51.622;7.540;2024-01-11T10:49:24;42.47;;;14.63;;
82873;SDS011;72647;51.622;7.540;2024-01-11T10:51:25;33.10;;;14.20;;
82873;SDS011;72647;51.622;7.540;2024-01-11T10:53:46;35.72;;;13.70;;
82873;SDS011;72647;51.622;7.540;2024-01-11T10:55:47;30.00;;;12.10;;
82873;SDS011;72647;51.622;7.540;2024-01-11T10:57:47;36.73;;;14.77;;
82873;SDS011;72647;51.622;7.540;2024-01-11T10:59:48;35.75;;;12.57;;
82873;SDS011;72647;51.622;7.540;2024-01-11T11:01:48;38.22;;;14.07;;
82873;SDS011;72647;51.622;7.540;2024-01-11T11:03:49;31.20;;;12.95;;
82873;SDS011;72647;51.622;7.540;2024-01-11T11:05:54;31.05;;;12.55;;
82873;SDS011;72647;51.622;7.540;2024-01-11T11:07:57;40.38;;;13.70;;
82873;SDS011;72647;51.622;7.540;2024-01-11T11:09:59;30.20;;;13.23;;
82873;SDS011;72647;51.622;7.540;2024-01-11T11:12:00;40.53;;;14.43;;
82873;SDS011;72647;51.622;7.540;2024-01-11T11:14:00;40.25;;;14.57;;
82873;SDS011;72647;51.622;7.540;2024-01-11T11:16:01;33.90;;;13.10;;
82873;SDS011;72647;51.622;7.540;2024-01-11T11:18:03;32.88;;;13.75;;
82873;SDS011;72647;51.622;7.540;2024-01-11T11:22:05;32.15;;;13.45;;
82873;SDS011;72647;51.622;7.540;2024-01-11T11:24:05;36.03;;;13.33;;
82873;SDS011;72647;51.622;7.540;2024-01-11T11:26:06;28.70;;;11.82;;
82873;SDS011;72647;51.622;7.540;2024-01-11T11:28:08;32.92;;;12.25;;
82873;SDS011;72647;51.622;7.540;2024-01-11T11:30:08;29.10;;;12.98;;
82873;SDS011;72647;51.622;7.540;2024-01-11T11:32:10;32.13;;;13.95;;
82873;SDS011;72647;51.622;7.540;2024-01-11T11:34:13;32.50;;;13.73;;
82873;SDS011;72647;51.622;7.540;2024-01-11T11:36:13;33.53;;;15.27;;
82873;SDS011;72647;51.622;7.540;2024-01-11T11:38:38;27.05;;;13.77;;
82873;SDS011;72647;51.622;7.540;2024-01-11T11:40:38;28.63;;;13.68;;
82873;SDS011;72647;51.622;7.540;2024-01-11T11:42:40;29.52;;;13.95;;
82873;SDS011;72647;51.622;7.540;2024-01-11T11:44:49;30.67;;;15.10;;
82873;SDS011;72647;51.622;7.540;2024-01-11T11:46:50;34.53;;;16.25;;
82873;SDS011;72647;51.622;7.540;2024-01-11T11:48:52;30.27;;;14.87;;
82873;SDS011;72647;51.622;7.540;2024-01-11T11:53:11;31.35;;;16.05;;
82873;SDS011;72647;51.622;7.540;2024-01-11T11:55:11;29.25;;;14.57;;